logo dgac
Lunes 19 de Abril del 2021

Metar

Buscar por aerodromo o helipuerto
Ingrese nombre de aeródromo, localidad o designador OACI:


SPECI del 19-04-2021 a las 12:08 UTC
Para mayor información visite www.meteochile.cl
SPECI SCCH 191208Z AUTO 07003KT //// R/////// NCD 08/08 Q1014
Nan: AUTO
Viento: dirección 070 grados, velocidad 3 nudos
Nan: ////
Nan: R///////
Nan: NCD
Temperatura: 8 °C
Rocío: 8 °C
Humedad_relativa: 100%
Presión: 1014 hPa
METAR del 19-04-2021 a las 12:00 UTC
Para mayor información visite www.meteochile.cl
METAR SAZS 191200Z 32006KT 9000 VCSH FEW028 SCT050 14/11 Q1008
Viento: dirección 320 grados, velocidad 6 nudos
Visibilidad: 9000 metros
En los alrededores, Chubascos
Nubes: Escasa nubosidad a 2800 pies sobre el nivel del aeródromo
Nubes: Nubosidad parcial a 5000 pies sobre el nivel del aeródromo
Temperatura: 14 °C
Rocío: 11 °C
Humedad_relativa: 82%
Presión: 1008 hPa
METAR del 19-04-2021 a las 12:00 UTC
Para mayor información visite www.meteochile.cl
METAR SAZN 191200Z NIL
Nan: NIL
METAR del 19-04-2021 a las 12:00 UTC
Para mayor información visite www.meteochile.cl
METAR SAZM 191200Z 35010KT 320V030 9999 FEW030 19/17 Q1021
Viento: dirección 350 grados, velocidad 10 nudos
Viento con dirección variable entre 320 y 030 grados
Visibilidad: 10 km o más
Nubes: Escasa nubosidad a 3000 pies sobre el nivel del aeródromo
Temperatura: 19 °C
Rocío: 17 °C
Humedad_relativa: 88%
Presión: 1021 hPa
METAR del 19-04-2021 a las 12:00 UTC
Para mayor información visite www.meteochile.cl
METAR SAWH 191200Z 07019KT 9999 VCSH BKN015 OVC045 08/05 Q0992
Viento: dirección 070 grados, velocidad 19 nudos
Visibilidad: 10 km o más
En los alrededores, Chubascos
Nubes: Nublado a 1500 pies sobre el nivel del aeródromo
Nubes: Cubierto a 4500 pies sobre el nivel del aeródromo
Temperatura: 8 °C
Rocío: 5 °C
Humedad_relativa: 81%
Presión: 992 hPa
METAR del 19-04-2021 a las 12:00 UTC
Para mayor información visite www.meteochile.cl
METAR SAVC 191200Z 02011KT CAVOK 19/09 Q1000
Viento: dirección 020 grados, velocidad 11 nudos
Visibilidad: 10 km o más,
    sin nubes bajo los 5.000 pies o bajo del MSA (Mínimo de Seguridad del Aeródromo),
    sin cumulonimbus, y sin fenómenos de tiempo significativo en el aeródromo o alrededores
Temperatura: 19 °C
Rocío: 9 °C
Humedad_relativa: 52%
Presión: 1000 hPa
METAR del 19-04-2021 a las 12:00 UTC
Para mayor información visite www.meteochile.cl
METAR SASJ 191200Z 00000KT 9000 SCT025 BKN100 20/19 Q1019
Visibilidad: 9000 metros
Nubes: Nubosidad parcial a 2500 pies sobre el nivel del aeródromo
Nubes: Nublado a 10000 pies sobre el nivel del aeródromo
Temperatura: 20 °C
Rocío: 19 °C
Humedad_relativa: 94%
Presión: 1019 hPa
METAR del 19-04-2021 a las 12:00 UTC
Para mayor información visite www.meteochile.cl
METAR SASA 191200Z 00000KT 9999 FEW010 BKN020 17/16 Q1020
Visibilidad: 10 km o más
Nubes: Escasa nubosidad a 1000 pies sobre el nivel del aeródromo
Nubes: Nublado a 2000 pies sobre el nivel del aeródromo
Temperatura: 17 °C
Rocío: 16 °C
Humedad_relativa: 94%
Presión: 1020 hPa
METAR del 19-04-2021 a las 12:00 UTC
Para mayor información visite www.meteochile.cl
METAR SBPA 191200Z VRB01KT CAVOK 21/18 Q1021
Viento: dirección variable, velocidad 1 nudos
Visibilidad: 10 km o más,
    sin nubes bajo los 5.000 pies o bajo del MSA (Mínimo de Seguridad del Aeródromo),
    sin cumulonimbus, y sin fenómenos de tiempo significativo en el aeródromo o alrededores
Temperatura: 21 °C
Rocío: 18 °C
Humedad_relativa: 83%
Presión: 1021 hPa
METAR del 19-04-2021 a las 12:00 UTC
Para mayor información visite www.meteochile.cl
METAR SBGR 191200Z 21003KT 9999 BKN015 19/16 Q1019
Viento: dirección 210 grados, velocidad 3 nudos
Visibilidad: 10 km o más
Nubes: Nublado a 1500 pies sobre el nivel del aeródromo
Temperatura: 19 °C
Rocío: 16 °C
Humedad_relativa: 83%
Presión: 1019 hPa